37°C Temp
13°C Dewpoint
24% Humidity
Temperature
11 KM/H
7 MPH
6 KTS
150°
South South
East

Wind Speed
Clear
Conditions
Pressure 1011.92 (hPa) - 29.88 (in)
Visibility 6.2 (mi) - 10.0 (km)

Current Conditions
LIRQ
Location 70(km)
Metar :LIRQ 261520Z 15006KT 110V200 CAVOK 37/13 Q1012
Sun 26th June 16:20 pm

Airport
  Metar Aviation API Data Provided by https://www.checkwx.com/ PHP scripts by weather34.com ©2022